createdAt,value
2019-03-24T00:03:51.291Z,8.70
2019-03-24T00:08:57.190Z,8.80
2019-03-24T00:14:03.095Z,8.60
2019-03-24T00:19:09.266Z,8.50
2019-03-24T00:24:15.136Z,8.50
2019-03-24T00:29:21.225Z,8.50
2019-03-24T00:34:27.264Z,8.50
2019-03-24T00:39:33.198Z,8.40
2019-03-24T00:44:39.358Z,8.30
2019-03-24T00:49:45.351Z,8.40
2019-03-24T00:54:51.213Z,8.30
2019-03-24T00:59:57.246Z,8.30
2019-03-24T01:05:03.089Z,8.10
2019-03-24T01:10:09.621Z,8.00
2019-03-24T01:15:15.739Z,7.90
2019-03-24T01:20:21.835Z,7.80
2019-03-24T01:25:27.791Z,7.80
2019-03-24T01:30:33.913Z,7.70
2019-03-24T01:35:39.822Z,7.70
2019-03-24T01:40:45.757Z,7.80
2019-03-24T01:45:58.659Z,7.80
2019-03-24T01:50:59.274Z,7.90
2019-03-24T01:56:05.364Z,7.90
2019-03-24T02:01:12.638Z,7.90
2019-03-24T02:06:18.745Z,7.90
2019-03-24T02:11:24.706Z,7.80
2019-03-24T02:16:30.779Z,7.80
2019-03-24T02:21:36.658Z,7.80
2019-03-24T02:26:42.717Z,7.70
2019-03-24T02:31:48.711Z,7.70
2019-03-24T02:36:54.786Z,7.60
2019-03-24T02:42:01.031Z,7.50
2019-03-24T02:47:07.018Z,7.40
2019-03-24T02:52:12.977Z,7.30
2019-03-24T02:57:19.013Z,7.30
2019-03-24T03:02:25.063Z,7.40
2019-03-24T03:07:31.054Z,7.30
2019-03-24T03:12:37.111Z,7.20
2019-03-24T03:17:43.161Z,7.10
2019-03-24T03:22:49.277Z,7.00
2019-03-24T03:27:55.193Z,6.90
2019-03-24T03:33:02.743Z,6.90
2019-03-24T03:38:08.924Z,6.80
2019-03-24T03:43:14.888Z,6.90
2019-03-24T03:48:20.782Z,6.80
2019-03-24T03:53:26.768Z,6.70
2019-03-24T03:58:32.861Z,6.70
2019-03-24T04:03:38.806Z,6.60
2019-03-24T04:08:44.923Z,6.60
2019-03-24T04:13:50.742Z,6.60
2019-03-24T04:18:56.695Z,6.60
2019-03-24T04:24:02.807Z,6.60
2019-03-24T04:29:08.940Z,6.50
2019-03-24T04:34:14.789Z,6.50
2019-03-24T04:39:20.840Z,6.50
2019-03-24T04:44:27.088Z,6.40
2019-03-24T04:49:33.187Z,6.40
2019-03-24T04:54:39.235Z,6.40
2019-03-24T04:59:45.306Z,6.40
2019-03-24T05:04:51.500Z,6.50
2019-03-24T05:09:58.214Z,6.60
2019-03-24T05:15:04.372Z,6.40
2019-03-24T05:20:10.771Z,6.40
2019-03-24T05:25:16.625Z,6.30
2019-03-24T05:30:22.716Z,6.20
2019-03-24T05:35:28.918Z,6.20
2019-03-24T05:40:35.017Z,6.20
2019-03-24T05:45:41.129Z,6.30
2019-03-24T05:50:47.017Z,6.40
2019-03-24T05:55:53.013Z,6.30
2019-03-24T06:00:58.992Z,6.30
2019-03-24T06:06:04.986Z,6.40
2019-03-24T06:11:10.804Z,6.50
2019-03-24T06:16:16.778Z,6.50
2019-03-24T06:21:22.747Z,6.60
2019-03-24T06:26:28.508Z,6.60
2019-03-24T06:31:34.511Z,6.60
2019-03-24T06:36:40.482Z,6.60
2019-03-24T06:41:46.587Z,6.60
2019-03-24T06:46:52.564Z,6.60
2019-03-24T06:51:58.529Z,6.50
2019-03-24T06:57:04.482Z,6.50
2019-03-24T07:02:10.639Z,6.40
2019-03-24T07:07:16.766Z,6.40
2019-03-24T07:12:22.873Z,6.40
2019-03-24T07:17:28.718Z,6.50
2019-03-24T07:22:34.760Z,6.50
2019-03-24T07:27:40.721Z,6.50
2019-03-24T07:32:46.828Z,6.60
2019-03-24T07:37:52.957Z,6.60
2019-03-24T07:42:59.005Z,6.70
2019-03-24T07:48:18.623Z,6.70
2019-03-24T07:53:27.162Z,6.70
2019-03-24T07:58:45.945Z,6.80
2019-03-24T08:03:50.557Z,6.90
2019-03-24T08:08:57.940Z,6.90
2019-03-24T08:14:03.924Z,6.90
2019-03-24T08:19:13.054Z,7.10
2019-03-24T08:24:18.955Z,7.20
2019-03-24T08:29:25.213Z,7.40
2019-03-24T08:34:31.395Z,7.60
2019-03-24T08:39:37.565Z,7.90
2019-03-24T08:44:45.433Z,8.10
2019-03-24T08:49:51.604Z,8.30
2019-03-24T08:54:59.701Z,8.60
2019-03-24T09:00:08.145Z,8.90
2019-03-24T09:05:14.537Z,9.20
2019-03-24T09:10:20.489Z,9.40
2019-03-24T09:15:32.508Z,9.60
2019-03-24T09:20:41.910Z,9.80
2019-03-24T09:25:46.519Z,10.00
2019-03-24T09:30:52.765Z,10.10
2019-03-24T09:35:58.885Z,10.40
2019-03-24T09:41:04.923Z,10.60
2019-03-24T09:46:11.089Z,10.80
2019-03-24T09:51:17.244Z,11.00
2019-03-24T09:56:23.562Z,11.20
2019-03-24T10:01:30.388Z,11.30
2019-03-24T10:06:36.557Z,11.30
2019-03-24T10:11:42.836Z,11.30
2019-03-24T10:16:48.940Z,11.40
2019-03-24T10:21:55.055Z,12.30
2019-03-24T10:27:01.045Z,13.10
2019-03-24T10:32:07.229Z,13.00
2019-03-24T10:37:13.333Z,12.50
2019-03-24T10:42:19.444Z,12.20
2019-03-24T10:47:25.559Z,12.00
2019-03-24T10:52:31.818Z,12.10
2019-03-24T10:57:38.103Z,12.20
2019-03-24T11:02:44.350Z,12.10
2019-03-24T11:07:50.378Z,12.10
2019-03-24T11:12:56.616Z,12.30
2019-03-24T11:18:02.765Z,12.30
2019-03-24T11:23:18.551Z,12.20
2019-03-24T11:28:24.620Z,12.20
2019-03-24T11:33:40.292Z,12.30
2019-03-24T11:38:46.808Z,12.40
2019-03-24T11:43:52.866Z,12.50
2019-03-24T11:48:58.833Z,12.50
2019-03-24T11:54:05.119Z,12.60
2019-03-24T11:59:11.327Z,12.70
2019-03-24T12:04:17.501Z,13.00
2019-03-24T12:09:23.500Z,13.00
2019-03-24T12:14:29.811Z,13.00
2019-03-24T12:19:36.848Z,13.10
2019-03-24T12:24:42.997Z,13.10
2019-03-24T12:29:49.117Z,13.20
2019-03-24T12:34:55.415Z,13.80
2019-03-24T12:40:01.674Z,14.50
2019-03-24T12:45:08.879Z,14.60
2019-03-24T12:50:15.096Z,14.30
2019-03-24T12:55:21.222Z,14.30
2019-03-24T13:00:41.087Z,14.20
2019-03-24T13:05:47.197Z,14.20
2019-03-24T13:10:53.439Z,14.30
2019-03-24T13:15:59.949Z,14.30
2019-03-24T13:21:05.877Z,14.30
2019-03-24T13:26:11.935Z,14.20
2019-03-24T13:31:18.217Z,14.20
2019-03-24T13:36:24.469Z,14.20
2019-03-24T13:41:30.471Z,14.40
2019-03-24T13:46:36.666Z,14.40
2019-03-24T13:51:42.998Z,14.40
2019-03-24T13:56:49.231Z,14.50
2019-03-24T14:01:55.679Z,14.50
2019-03-24T14:07:01.689Z,14.50
2019-03-24T14:12:07.863Z,14.50
2019-03-24T14:17:14.247Z,14.50
2019-03-24T14:22:20.324Z,14.60
2019-03-24T14:27:26.305Z,14.70
2019-03-24T14:32:32.507Z,14.70
2019-03-24T14:37:38.792Z,14.70
2019-03-24T14:42:44.621Z,14.80
2019-03-24T14:47:50.722Z,14.80
2019-03-24T14:52:56.904Z,14.80
2019-03-24T14:58:03.293Z,14.80
2019-03-24T15:03:09.968Z,14.80
2019-03-24T15:08:16.264Z,14.80
2019-03-24T15:13:22.666Z,14.90
2019-03-24T15:18:28.615Z,14.80
2019-03-24T15:23:34.503Z,14.80
2019-03-24T15:28:40.581Z,14.90
2019-03-24T15:33:46.590Z,14.90
2019-03-24T15:38:52.752Z,14.80
2019-03-24T15:44:01.908Z,14.80
2019-03-24T15:49:08.051Z,14.80
2019-03-24T15:54:14.086Z,14.80
2019-03-24T15:59:20.190Z,14.80
2019-03-24T16:04:26.282Z,14.80
2019-03-24T16:09:32.382Z,14.60
2019-03-24T16:14:38.606Z,14.50
2019-03-24T16:19:44.782Z,14.40
2019-03-24T16:24:50.673Z,14.30
2019-03-24T16:29:56.823Z,14.30
2019-03-24T16:35:03.084Z,14.20
2019-03-24T16:40:09.487Z,14.20
2019-03-24T16:45:16.024Z,14.20
2019-03-24T16:50:22.087Z,14.10
2019-03-24T16:55:28.238Z,14.00
2019-03-24T17:00:34.298Z,13.90
2019-03-24T17:05:40.544Z,13.80
2019-03-24T17:10:47.111Z,13.90
2019-03-24T17:15:53.444Z,13.90
2019-03-24T17:20:59.718Z,13.80
2019-03-24T17:26:05.728Z,13.70
2019-03-24T17:31:11.823Z,13.60
2019-03-24T17:36:17.964Z,13.60
2019-03-24T17:41:24.187Z,13.50
2019-03-24T17:46:39.671Z,13.40
2019-03-24T17:51:46.116Z,13.40
2019-03-24T17:56:52.238Z,13.30
2019-03-24T18:01:58.319Z,13.30
2019-03-24T18:07:04.311Z,13.20
2019-03-24T18:12:10.370Z,13.10
2019-03-24T18:17:16.353Z,13.10
2019-03-24T18:22:22.552Z,13.00
2019-03-24T18:27:28.797Z,13.00
2019-03-24T18:32:35.024Z,13.00
2019-03-24T18:37:41.074Z,12.90
2019-03-24T18:42:49.274Z,12.90
2019-03-24T18:47:55.395Z,13.10
2019-03-24T18:53:01.647Z,13.10
2019-03-24T18:58:07.993Z,13.00
2019-03-24T19:03:14.070Z,13.00
2019-03-24T19:08:20.070Z,13.10
2019-03-24T19:13:26.924Z,13.00
2019-03-24T19:18:33.253Z,12.90
2019-03-24T19:23:39.959Z,12.70
2019-03-24T19:28:46.189Z,12.60
2019-03-24T19:33:52.347Z,12.60
2019-03-24T19:38:58.881Z,12.50
2019-03-24T19:44:05.157Z,12.50
2019-03-24T19:49:11.404Z,12.40
2019-03-24T19:54:17.641Z,12.50
2019-03-24T19:59:23.887Z,12.40
2019-03-24T20:04:30.069Z,12.30
2019-03-24T20:09:36.221Z,12.20
2019-03-24T20:14:42.259Z,12.20
2019-03-24T20:19:48.274Z,12.10
2019-03-24T20:24:55.624Z,12.10
2019-03-24T20:30:01.752Z,12.10
2019-03-24T20:35:09.110Z,12.00
2019-03-24T20:40:15.650Z,11.90
2019-03-24T20:45:21.833Z,11.90
2019-03-24T20:50:27.970Z,11.90
2019-03-24T20:55:34.528Z,11.80
2019-03-24T21:00:40.978Z,11.70
2019-03-24T21:05:47.056Z,11.70
2019-03-24T21:10:53.164Z,11.60
2019-03-24T21:15:59.478Z,11.30
2019-03-24T21:21:06.164Z,11.30
2019-03-24T21:26:13.623Z,11.20
2019-03-24T21:31:19.852Z,11.20
2019-03-24T21:36:25.947Z,11.10
2019-03-24T21:41:32.665Z,11.10
2019-03-24T21:46:38.963Z,11.00
2019-03-24T21:51:44.995Z,10.90
2019-03-24T21:56:51.407Z,10.90
2019-03-24T22:01:57.716Z,10.80
2019-03-24T22:07:06.469Z,10.80
2019-03-24T22:12:12.867Z,10.70
2019-03-24T22:17:19.249Z,10.60
2019-03-24T22:22:25.781Z,10.60
2019-03-24T22:27:32.328Z,10.60
2019-03-24T22:32:38.761Z,10.60
2019-03-24T22:37:44.751Z,10.60
2019-03-24T22:42:51.024Z,10.60
2019-03-24T22:47:57.291Z,10.50
2019-03-24T22:53:03.397Z,10.40
2019-03-24T22:58:10.699Z,10.40
2019-03-24T23:03:16.762Z,10.40
2019-03-24T23:08:22.726Z,10.40
2019-03-24T23:13:28.816Z,10.30
2019-03-24T23:18:34.780Z,10.20
2019-03-24T23:23:41.242Z,10.10
2019-03-24T23:28:47.211Z,10.10
2019-03-24T23:33:53.418Z,10.00
2019-03-24T23:38:59.312Z,10.00
2019-03-24T23:44:05.521Z,10.00
2019-03-24T23:49:22.294Z,10.00
2019-03-24T23:54:28.481Z,9.90
2019-03-24T23:59:35.169Z,9.90
